createdAt,value
2018-05-14T00:01:32.763Z,87.70
2018-05-14T00:04:00.387Z,87.70
2018-05-14T00:06:29.249Z,87.80
2018-05-14T00:08:56.972Z,87.90
2018-05-14T00:11:24.616Z,87.90
2018-05-14T00:13:52.241Z,87.70
2018-05-14T00:16:20.914Z,87.30
2018-05-14T00:18:48.514Z,87.10
2018-05-14T00:21:16.177Z,87.10
2018-05-14T00:23:44.022Z,86.90
2018-05-14T00:26:12.372Z,87.10
2018-05-14T00:28:40.133Z,87.00
2018-05-14T00:31:07.731Z,86.60
2018-05-14T00:33:35.356Z,87.00
2018-05-14T00:36:06.257Z,87.00
2018-05-14T00:38:33.942Z,87.00
2018-05-14T00:41:01.688Z,87.40
2018-05-14T00:43:29.410Z,87.10
2018-05-14T00:45:57.804Z,86.90
2018-05-14T00:48:26.406Z,86.80
2018-05-14T00:50:54.042Z,86.70
2018-05-14T00:53:22.693Z,86.80
2018-05-14T00:55:50.367Z,86.80
2018-05-14T00:58:18.131Z,86.90
2018-05-14T01:00:46.605Z,86.70
2018-05-14T01:03:14.275Z,86.60
2018-05-14T01:05:41.883Z,86.70
2018-05-14T01:08:09.537Z,86.50
2018-05-14T01:10:37.143Z,86.70
2018-05-14T01:13:04.767Z,86.40
2018-05-14T01:15:32.372Z,86.50
2018-05-14T01:18:00.049Z,86.50
2018-05-14T01:20:28.532Z,87.10
2018-05-14T01:22:56.902Z,87.10
2018-05-14T01:25:25.615Z,87.10
2018-05-14T01:27:54.193Z,87.40
2018-05-14T01:30:22.743Z,87.40
2018-05-14T01:32:50.346Z,87.90
2018-05-14T01:35:17.972Z,88.00
2018-05-14T01:37:45.565Z,88.30
2018-05-14T01:40:14.956Z,88.00
2018-05-14T01:42:43.376Z,87.90
2018-05-14T01:45:10.969Z,87.90
2018-05-14T01:47:38.660Z,88.00
2018-05-14T01:50:07.193Z,87.70
2018-05-14T01:52:35.192Z,87.60
2018-05-14T01:55:02.841Z,87.70
2018-05-14T01:57:30.466Z,87.40
2018-05-14T01:59:58.105Z,87.50
2018-05-14T02:02:25.903Z,87.30
2018-05-14T02:04:53.844Z,87.30
2018-05-14T02:07:22.032Z,86.90
2018-05-14T02:09:50.922Z,86.20
2018-05-14T02:12:18.519Z,86.30
2018-05-14T02:14:46.165Z,85.70
2018-05-14T02:17:13.761Z,85.80
2018-05-14T02:19:41.449Z,85.70
2018-05-14T02:22:09.083Z,85.90
2018-05-14T02:24:36.650Z,86.20
2018-05-14T02:27:07.030Z,85.30
2018-05-14T02:29:34.681Z,86.00
2018-05-14T02:32:02.407Z,85.50
2018-05-14T02:34:30.956Z,85.40
2018-05-14T02:36:58.611Z,85.50
2018-05-14T02:39:26.208Z,85.40
2018-05-14T02:41:53.850Z,85.40
2018-05-14T02:44:21.471Z,85.30
2018-05-14T02:46:49.564Z,85.00
2018-05-14T02:49:17.149Z,84.50
2018-05-14T02:51:44.876Z,84.50
2018-05-14T02:54:13.252Z,85.10
2018-05-14T02:56:41.794Z,85.10
2018-05-14T02:59:10.277Z,85.70
2018-05-14T03:01:38.830Z,85.80
2018-05-14T03:04:07.337Z,85.70
2018-05-14T03:06:35.900Z,85.50
2018-05-14T03:09:06.100Z,85.50
2018-05-14T03:11:33.787Z,85.60
2018-05-14T03:14:02.224Z,86.10
2018-05-14T03:16:30.856Z,86.10
2018-05-14T03:18:59.270Z,85.70
2018-05-14T03:21:26.913Z,85.70
2018-05-14T03:23:55.294Z,85.60
2018-05-14T03:26:23.854Z,85.70
2018-05-14T03:28:51.444Z,85.70
2018-05-14T03:31:20.189Z,85.90
2018-05-14T03:33:47.839Z,85.20
2018-05-14T03:36:15.432Z,85.20
2018-05-14T03:38:43.033Z,85.40
2018-05-14T03:41:10.626Z,85.20
2018-05-14T03:43:38.278Z,85.10
2018-05-14T03:46:06.228Z,84.90
2018-05-14T03:48:33.829Z,84.70
2018-05-14T03:51:01.567Z,85.10
2018-05-14T03:53:29.141Z,85.10
2018-05-14T03:55:58.309Z,85.00
2018-05-14T03:58:37.593Z,85.00
2018-05-14T04:01:15.566Z,85.10
2018-05-14T04:03:54.943Z,85.00
2018-05-14T04:06:32.048Z,84.10
2018-05-14T04:08:59.672Z,84.10
2018-05-14T04:11:28.379Z,83.70
2018-05-14T04:13:57.536Z,84.10
2018-05-14T04:16:28.773Z,84.00
2018-05-14T04:18:57.092Z,84.00
2018-05-14T04:21:25.243Z,84.10
2018-05-14T04:23:53.987Z,83.80
2018-05-14T04:26:21.678Z,84.30
2018-05-14T04:28:49.665Z,84.20
2018-05-14T04:31:17.319Z,84.10
2018-05-14T04:33:45.243Z,84.30
2018-05-14T04:36:12.834Z,84.10
2018-05-14T04:38:40.577Z,84.00
2018-05-14T04:41:08.231Z,83.90
2018-05-14T04:43:35.850Z,83.60
2018-05-14T04:46:03.488Z,83.80
2018-05-14T04:48:31.090Z,83.30
2018-05-14T04:50:58.790Z,83.00
2018-05-14T04:53:26.423Z,82.90
2018-05-14T04:55:54.079Z,83.20
2018-05-14T04:58:21.765Z,82.70
2018-05-14T05:00:49.791Z,82.60
2018-05-14T05:03:17.503Z,82.60
2018-05-14T05:05:47.009Z,83.00
2018-05-14T05:08:14.652Z,82.40
2018-05-14T05:10:42.294Z,81.90
2018-05-14T05:13:09.968Z,81.90
2018-05-14T05:15:38.524Z,81.80
2018-05-14T05:18:06.459Z,81.80
2018-05-14T05:20:35.171Z,81.30
2018-05-14T05:23:02.897Z,80.90
2018-05-14T05:25:30.597Z,81.10
2018-05-14T05:27:58.284Z,80.90
2018-05-14T05:30:26.651Z,80.40
2018-05-14T05:32:55.093Z,80.10
2018-05-14T05:35:22.978Z,80.10
2018-05-14T05:37:50.679Z,80.00
2018-05-14T05:40:19.086Z,80.00
2018-05-14T05:42:47.679Z,80.00
2018-05-14T05:45:16.503Z,79.70
2018-05-14T05:47:44.522Z,79.50
2018-05-14T05:50:12.265Z,79.30
2018-05-14T05:52:40.006Z,79.10
2018-05-14T05:55:08.589Z,78.90
2018-05-14T05:57:36.652Z,78.90
2018-05-14T06:00:04.714Z,78.50
2018-05-14T06:02:32.530Z,78.00
2018-05-14T06:05:01.989Z,78.50
2018-05-14T06:07:29.607Z,78.50
2018-05-14T06:10:00.289Z,78.50
2018-05-14T06:12:27.959Z,77.90
2018-05-14T06:14:55.582Z,77.60
2018-05-14T06:17:23.313Z,77.90
2018-05-14T06:19:51.713Z,77.80
2018-05-14T06:22:19.498Z,77.70
2018-05-14T06:24:47.181Z,77.50
2018-05-14T06:27:16.054Z,77.00
2018-05-14T06:29:43.814Z,77.00
2018-05-14T06:32:11.568Z,76.60
2018-05-14T06:34:39.209Z,75.60
2018-05-14T06:37:07.004Z,75.70
2018-05-14T06:39:35.600Z,75.50
2018-05-14T06:42:04.332Z,75.70
2018-05-14T06:44:32.059Z,75.00
2018-05-14T06:47:05.811Z,74.90
2018-05-14T06:49:33.622Z,74.10
2018-05-14T06:52:05.177Z,73.30
2018-05-14T06:54:32.812Z,72.10
2018-05-14T06:57:01.482Z,70.80
2018-05-14T06:59:29.242Z,70.40
2018-05-14T07:02:00.072Z,70.20
2018-05-14T07:04:28.696Z,70.10
2018-05-14T07:06:56.511Z,69.60
2018-05-14T07:09:24.927Z,68.60
2018-05-14T07:11:52.651Z,68.50
2018-05-14T07:14:22.030Z,69.60
2018-05-14T07:16:49.699Z,69.70
2018-05-14T07:19:17.538Z,69.60
2018-05-14T07:21:45.283Z,68.20
2018-05-14T07:24:12.899Z,68.30
2018-05-14T07:26:45.598Z,67.80
2018-05-14T07:29:14.423Z,67.20
2018-05-14T07:31:42.057Z,66.00
2018-05-14T07:34:09.932Z,65.70
2018-05-14T07:36:38.503Z,65.60
2018-05-14T07:39:09.458Z,65.80
2018-05-14T07:41:37.221Z,66.30
2018-05-14T07:44:05.701Z,66.20
2018-05-14T07:46:33.455Z,65.40
2018-05-14T07:49:01.385Z,65.20
2018-05-14T07:51:31.164Z,64.80
2018-05-14T07:53:59.981Z,64.90
2018-05-14T07:56:27.620Z,64.40
2018-05-14T07:58:55.535Z,64.40
2018-05-14T08:01:24.015Z,63.40
2018-05-14T08:03:52.647Z,63.40
2018-05-14T08:06:20.372Z,64.20
2018-05-14T08:08:48.117Z,64.70
2018-05-14T08:11:21.143Z,64.90
2018-05-14T08:13:49.742Z,65.30
2018-05-14T08:16:21.484Z,64.30
2018-05-14T08:18:49.142Z,64.90
2018-05-14T08:21:16.806Z,65.40
2018-05-14T08:23:44.800Z,65.30
2018-05-14T08:26:13.440Z,65.10
2018-05-14T08:28:41.866Z,66.40
2018-05-14T08:31:09.596Z,66.20
2018-05-14T08:33:37.375Z,67.10
2018-05-14T08:36:05.948Z,66.60
2018-05-14T08:38:33.612Z,66.40
2018-05-14T08:41:01.410Z,66.80
2018-05-14T08:43:30.089Z,66.40
2018-05-14T08:45:57.858Z,66.40
2018-05-14T08:48:25.585Z,66.20
2018-05-14T08:50:53.356Z,65.50
2018-05-14T08:53:21.379Z,65.30
2018-05-14T08:55:49.033Z,63.80
2018-05-14T08:58:17.724Z,64.20
2018-05-14T09:00:45.572Z,62.30
2018-05-14T09:03:14.346Z,61.50
2018-05-14T09:05:42.213Z,60.60
2018-05-14T09:08:10.040Z,60.70
2018-05-14T09:10:38.481Z,59.90
2018-05-14T09:13:06.303Z,60.00
2018-05-14T09:15:34.162Z,59.90
2018-05-14T09:18:01.808Z,61.50
2018-05-14T09:20:30.548Z,61.80
2018-05-14T09:23:00.232Z,61.70
2018-05-14T09:25:28.171Z,61.70
2018-05-14T09:27:55.954Z,62.10
2018-05-14T09:30:23.845Z,61.30
2018-05-14T09:32:51.453Z,62.20
2018-05-14T09:35:19.350Z,63.30
2018-05-14T09:37:46.977Z,62.60
2018-05-14T09:40:15.008Z,63.10
2018-05-14T09:42:42.957Z,63.00
2018-05-14T09:45:10.671Z,63.10
2018-05-14T09:47:38.351Z,64.10
2018-05-14T09:50:06.378Z,64.20
2018-05-14T09:52:34.081Z,63.50
2018-05-14T09:55:02.740Z,61.20
2018-05-14T09:57:30.534Z,61.10
2018-05-14T09:59:58.414Z,61.90
2018-05-14T10:02:27.012Z,59.60
2018-05-14T10:04:54.781Z,59.60
2018-05-14T10:07:22.587Z,59.20
2018-05-14T10:09:50.276Z,59.00
2018-05-14T10:12:19.167Z,56.00
2018-05-14T10:14:47.473Z,56.00
2018-05-14T10:17:15.387Z,54.70
2018-05-14T10:19:43.403Z,54.30
2018-05-14T10:22:13.845Z,55.40
2018-05-14T10:24:41.573Z,55.40
2018-05-14T10:27:09.537Z,56.40
2018-05-14T10:29:37.263Z,56.20
2018-05-14T10:32:07.316Z,57.70
2018-05-14T10:34:36.335Z,56.80
2018-05-14T10:37:05.427Z,56.80
2018-05-14T10:39:34.433Z,56.20
2018-05-14T10:42:02.492Z,55.50
2018-05-14T10:44:30.742Z,54.90
2018-05-14T10:46:59.619Z,52.00
2018-05-14T10:49:29.370Z,52.00
2018-05-14T10:51:57.942Z,53.60
2018-05-14T10:54:26.699Z,54.10
2018-05-14T10:56:54.475Z,54.10
2018-05-14T10:59:23.118Z,52.20
2018-05-14T11:01:51.815Z,52.10
2018-05-14T11:04:20.671Z,49.50
2018-05-14T11:06:49.717Z,48.90
2018-05-14T11:09:17.602Z,47.80
2018-05-14T11:11:46.230Z,47.80
2018-05-14T11:14:14.247Z,47.70
2018-05-14T11:16:42.845Z,49.40
2018-05-14T11:19:10.621Z,49.40
2018-05-14T11:21:38.548Z,51.10
2018-05-14T11:24:09.333Z,52.10
2018-05-14T11:26:36.949Z,52.40
2018-05-14T11:29:06.688Z,52.70
2018-05-14T11:31:38.435Z,52.70
2018-05-14T11:34:06.513Z,53.30
2018-05-14T11:36:36.414Z,52.40
2018-05-14T11:39:05.127Z,52.50
2018-05-14T11:41:35.232Z,54.30
2018-05-14T11:44:04.014Z,54.20
2018-05-14T11:46:32.017Z,53.20
2018-05-14T11:48:59.695Z,52.70
2018-05-14T11:51:27.372Z,52.40
2018-05-14T11:53:56.113Z,52.20
2018-05-14T11:56:23.956Z,52.70
2018-05-14T11:58:52.476Z,52.30
2018-05-14T12:01:21.248Z,52.30
2018-05-14T12:03:50.681Z,53.00
2018-05-14T12:06:19.582Z,53.00
2018-05-14T12:08:48.488Z,53.70
2018-05-14T12:11:16.542Z,53.90
2018-05-14T12:13:44.248Z,55.00
2018-05-14T12:16:11.996Z,55.10
2018-05-14T12:18:40.746Z,54.80
2018-05-14T12:21:09.275Z,54.00
2018-05-14T12:23:36.868Z,53.90
2018-05-14T12:26:04.557Z,53.50
2018-05-14T12:28:32.380Z,53.20
2018-05-14T12:31:00.056Z,54.80
2018-05-14T12:33:28.714Z,53.90
2018-05-14T12:35:56.363Z,53.70
2018-05-14T12:38:24.409Z,53.80
2018-05-14T12:40:53.148Z,53.90
2018-05-14T12:43:21.837Z,52.90
2018-05-14T12:45:50.674Z,52.50
2018-05-14T12:48:19.383Z,52.70
2018-05-14T12:50:47.091Z,52.30
2018-05-14T12:53:14.765Z,52.30
2018-05-14T12:55:43.535Z,52.50
2018-05-14T12:58:11.931Z,51.60
2018-05-14T13:00:40.363Z,52.70
2018-05-14T13:03:09.355Z,52.70
2018-05-14T13:05:37.546Z,53.00
2018-05-14T13:08:08.435Z,52.90
2018-05-14T13:10:36.143Z,52.90
2018-05-14T13:13:04.653Z,53.20
2018-05-14T13:15:33.106Z,53.30
2018-05-14T13:18:00.874Z,53.30
2018-05-14T13:20:28.632Z,53.10
2018-05-14T13:22:57.289Z,53.20
2018-05-14T13:25:25.183Z,53.30
2018-05-14T13:27:52.850Z,53.70
2018-05-14T13:30:20.725Z,53.80
2018-05-14T13:32:48.580Z,54.30
2018-05-14T13:35:16.886Z,54.20
2018-05-14T13:37:45.888Z,55.30
2018-05-14T13:40:14.400Z,55.20
2018-05-14T13:42:42.311Z,55.60
2018-05-14T13:45:10.027Z,56.30
2018-05-14T13:47:37.990Z,56.50
2018-05-14T13:50:09.619Z,56.40
2018-05-14T13:52:37.563Z,56.60
2018-05-14T13:55:05.242Z,56.00
2018-05-14T13:57:33.811Z,56.70
2018-05-14T14:00:01.591Z,56.60
2018-05-14T14:02:31.077Z,56.20
2018-05-14T14:04:59.633Z,56.20
2018-05-14T14:07:27.572Z,56.50
2018-05-14T14:09:55.443Z,56.80
2018-05-14T14:12:23.361Z,56.70
2018-05-14T14:14:51.444Z,57.10
2018-05-14T14:17:19.523Z,57.90
2018-05-14T14:19:49.355Z,57.30
2018-05-14T14:22:17.176Z,57.30
2018-05-14T14:24:45.988Z,57.50
2018-05-14T14:27:16.286Z,57.30
2018-05-14T14:29:47.299Z,57.50
2018-05-14T14:32:18.215Z,57.80
2018-05-14T14:34:48.113Z,57.80
2018-05-14T14:37:16.315Z,57.80
2018-05-14T14:39:44.919Z,57.40
2018-05-14T14:42:13.722Z,57.40
2018-05-14T14:44:41.962Z,56.70
2018-05-14T14:47:11.603Z,55.60
2018-05-14T14:49:40.804Z,55.30
2018-05-14T14:52:10.666Z,55.30
2018-05-14T14:54:39.813Z,55.50
2018-05-14T14:57:09.146Z,55.70
2018-05-14T14:59:37.734Z,55.60
2018-05-14T15:02:10.758Z,56.10
2018-05-14T15:04:40.544Z,56.00
2018-05-14T15:07:09.159Z,55.80
2018-05-14T15:09:40.686Z,55.20
2018-05-14T15:12:09.810Z,55.80
2018-05-14T15:14:38.778Z,54.10
2018-05-14T15:17:08.064Z,54.50
2018-05-14T15:19:36.631Z,53.30
2018-05-14T15:22:05.326Z,51.40
2018-05-14T15:24:34.953Z,51.60
2018-05-14T15:27:04.844Z,51.50
2018-05-14T15:29:33.166Z,51.50
2018-05-14T15:32:01.830Z,50.50
2018-05-14T15:34:31.331Z,50.40
2018-05-14T15:36:59.322Z,49.70
2018-05-14T15:39:28.379Z,48.80
2018-05-14T15:41:56.901Z,49.00
2018-05-14T15:44:24.749Z,48.90
2018-05-14T15:46:54.035Z,49.50
2018-05-14T15:49:22.013Z,49.50
2018-05-14T15:51:49.856Z,49.30
2018-05-14T15:54:18.225Z,49.00
2018-05-14T15:56:50.113Z,48.10
2018-05-14T15:59:21.117Z,48.50
2018-05-14T16:01:49.243Z,48.50
2018-05-14T16:04:17.954Z,47.90
2018-05-14T16:06:46.408Z,48.00
2018-05-14T16:09:15.527Z,50.30
2018-05-14T16:11:45.117Z,54.60
2018-05-14T16:14:13.331Z,54.70
2018-05-14T16:16:41.706Z,54.80
2018-05-14T16:19:09.459Z,54.80
2018-05-14T16:21:38.142Z,55.10
2018-05-14T16:24:06.080Z,55.50
2018-05-14T16:26:34.041Z,54.40
2018-05-14T16:29:02.584Z,54.60
2018-05-14T16:31:30.661Z,50.90
2018-05-14T16:33:58.807Z,50.40
2018-05-14T16:36:27.185Z,46.80
2018-05-14T16:38:57.084Z,44.80
2018-05-14T16:41:25.591Z,45.30
2018-05-14T16:43:55.059Z,43.60
2018-05-14T16:46:22.918Z,43.60
2018-05-14T16:48:51.591Z,43.00
2018-05-14T16:51:19.236Z,43.00
2018-05-14T16:53:48.028Z,43.20
2018-05-14T16:56:15.702Z,42.80
2018-05-14T16:58:44.316Z,41.60
2018-05-14T17:01:14.303Z,41.70
2018-05-14T17:03:42.327Z,41.60
2018-05-14T17:06:11.300Z,41.70
2018-05-14T17:08:39.034Z,42.30
2018-05-14T17:11:07.447Z,42.30
2018-05-14T17:13:35.392Z,42.30
2018-05-14T17:16:03.115Z,42.30
2018-05-14T17:18:31.349Z,42.30
2018-05-14T17:21:00.843Z,42.40
2018-05-14T17:23:28.846Z,42.20
2018-05-14T17:25:58.758Z,42.00
2018-05-14T17:28:28.031Z,42.00
2018-05-14T17:30:55.859Z,42.10
2018-05-14T17:33:24.718Z,42.20
2018-05-14T17:35:52.409Z,42.20
2018-05-14T17:38:20.074Z,42.30
2018-05-14T17:40:48.576Z,42.20
2018-05-14T17:43:16.506Z,42.40
2018-05-14T17:45:44.107Z,42.50
2018-05-14T17:48:12.676Z,42.90
2018-05-14T17:50:41.151Z,42.80
2018-05-14T17:53:08.846Z,42.70
2018-05-14T17:55:39.446Z,42.90
2018-05-14T17:58:08.838Z,43.00
2018-05-14T18:00:36.701Z,43.50
2018-05-14T18:03:05.226Z,43.40
2018-05-14T18:05:36.899Z,42.80
2018-05-14T18:08:06.671Z,42.00
2018-05-14T18:10:34.558Z,42.30
2018-05-14T18:13:02.972Z,42.30
2018-05-14T18:15:34.603Z,42.30
2018-05-14T18:18:03.272Z,42.00
2018-05-14T18:20:31.235Z,42.20
2018-05-14T18:23:02.731Z,42.20
2018-05-14T18:25:36.768Z,42.90
2018-05-14T18:28:09.457Z,43.30
2018-05-14T18:30:40.830Z,43.50
2018-05-14T18:33:14.077Z,43.40
2018-05-14T18:35:44.980Z,43.70
2018-05-14T18:38:17.246Z,43.80
2018-05-14T18:40:45.748Z,44.10
2018-05-14T18:43:13.616Z,44.40
2018-05-14T18:45:41.859Z,44.80
2018-05-14T18:48:10.356Z,45.30
2018-05-14T18:50:38.942Z,45.80
2018-05-14T18:53:08.064Z,45.60
2018-05-14T18:55:37.073Z,46.00
2018-05-14T18:58:06.165Z,46.00
2018-05-14T19:00:34.126Z,46.10
2018-05-14T19:03:02.156Z,46.10
2018-05-14T19:05:30.055Z,46.10
2018-05-14T19:08:00.195Z,46.40
2018-05-14T19:10:34.233Z,46.60
2018-05-14T19:13:04.120Z,46.80
2018-05-14T19:15:38.160Z,46.90
2018-05-14T19:18:07.468Z,46.40
2018-05-14T19:20:35.522Z,46.30
2018-05-14T19:23:11.118Z,46.60
2018-05-14T19:25:39.734Z,46.20
2018-05-14T19:28:14.337Z,46.50
2018-05-14T19:30:42.468Z,46.90
2018-05-14T19:33:10.633Z,47.40
2018-05-14T19:35:44.704Z,47.50
2018-05-14T19:38:12.937Z,47.90
2018-05-14T19:40:47.216Z,48.50
2018-05-14T19:43:15.338Z,49.00
2018-05-14T19:45:43.615Z,49.00
2018-05-14T19:48:13.666Z,49.40
2018-05-14T19:50:42.253Z,49.60
2018-05-14T19:53:10.240Z,49.50
2018-05-14T19:55:38.390Z,49.90
2018-05-14T19:58:06.126Z,49.60
2018-05-14T20:00:33.801Z,50.20
2018-05-14T20:03:01.530Z,50.30
2018-05-14T20:05:30.067Z,50.60
2018-05-14T20:07:57.755Z,50.60
2018-05-14T20:10:26.463Z,50.60
2018-05-14T20:12:54.855Z,50.80
2018-05-14T20:17:57.386Z,51.20
2018-05-14T20:20:25.023Z,50.90
2018-05-14T20:22:52.816Z,51.10
2018-05-14T20:25:20.507Z,51.50
2018-05-14T20:27:49.034Z,51.30
2018-05-14T20:30:16.693Z,51.30
2018-05-14T20:32:44.375Z,51.40
2018-05-14T20:35:20.675Z,51.10
2018-05-14T20:37:49.392Z,51.40
2018-05-14T20:40:17.256Z,51.60
2018-05-14T20:42:45.862Z,51.70
2018-05-14T20:45:14.857Z,51.50
2018-05-14T20:47:42.788Z,51.30
2018-05-14T20:50:10.419Z,51.10
2018-05-14T20:52:38.265Z,51.50
2018-05-14T20:55:06.217Z,51.40
2018-05-14T20:57:33.903Z,51.50
2018-05-14T21:00:02.021Z,51.70
2018-05-14T21:02:31.623Z,51.70
2018-05-14T21:05:00.012Z,51.60
2018-05-14T21:07:28.476Z,51.90
2018-05-14T21:09:56.487Z,51.90
2018-05-14T21:12:25.512Z,51.60
2018-05-14T21:14:54.028Z,51.60
2018-05-14T21:17:22.677Z,51.50
2018-05-14T21:19:51.216Z,52.30
2018-05-14T21:22:18.871Z,51.70
2018-05-14T21:24:47.434Z,52.10
2018-05-14T21:27:15.518Z,52.10
2018-05-14T21:29:44.175Z,52.60
2018-05-14T21:32:12.879Z,52.50
2018-05-14T21:34:40.598Z,51.90
2018-05-14T21:37:08.335Z,52.00
2018-05-14T21:39:36.035Z,52.40
2018-05-14T21:42:03.599Z,52.20
2018-05-14T21:44:31.350Z,52.30
2018-05-14T21:47:02.653Z,52.50
2018-05-14T21:49:30.549Z,52.50
2018-05-14T21:52:00.209Z,52.20
2018-05-14T21:54:27.806Z,52.20
2018-05-14T21:56:56.578Z,52.20
2018-05-14T21:59:25.120Z,51.90
2018-05-14T22:01:52.745Z,51.90
2018-05-14T22:04:21.192Z,51.90
2018-05-14T22:06:55.988Z,52.10
2018-05-14T22:09:24.430Z,51.90
2018-05-14T22:11:52.064Z,51.90
2018-05-14T22:14:20.159Z,52.20
2018-05-14T22:16:48.775Z,51.90
2018-05-14T22:19:16.510Z,52.00
2018-05-14T22:21:44.857Z,51.90
2018-05-14T22:24:12.503Z,51.90
2018-05-14T22:26:40.579Z,52.30
2018-05-14T22:29:09.566Z,51.80
2018-05-14T22:31:37.226Z,51.90
2018-05-14T22:34:05.223Z,52.10
2018-05-14T22:36:33.570Z,52.10
2018-05-14T22:39:03.255Z,52.20
2018-05-14T22:41:30.860Z,52.50
2018-05-14T22:43:58.859Z,52.40
2018-05-14T22:46:26.462Z,52.40
2018-05-14T22:48:54.192Z,52.30
2018-05-14T22:51:21.859Z,52.00
2018-05-14T22:53:49.470Z,51.90
2018-05-14T22:56:22.654Z,52.00
2018-05-14T22:58:50.275Z,51.90
2018-05-14T23:01:18.111Z,51.90
2018-05-14T23:03:46.480Z,51.70
2018-05-14T23:06:14.995Z,51.60
2018-05-14T23:08:42.688Z,51.60
2018-05-14T23:11:10.506Z,51.80
2018-05-14T23:13:38.900Z,51.80
2018-05-14T23:16:07.824Z,51.80
2018-05-14T23:18:35.501Z,52.10
2018-05-14T23:21:03.484Z,52.00
2018-05-14T23:23:31.193Z,51.90
2018-05-14T23:25:58.830Z,52.00
2018-05-14T23:28:28.157Z,52.50
2018-05-14T23:30:56.020Z,52.50
2018-05-14T23:33:23.623Z,52.90
2018-05-14T23:35:52.333Z,53.20
2018-05-14T23:38:21.923Z,54.50
2018-05-14T23:40:49.527Z,54.40
2018-05-14T23:43:17.191Z,54.50
2018-05-14T23:45:44.923Z,54.70
2018-05-14T23:48:12.568Z,54.90
2018-05-14T23:50:40.214Z,55.30
2018-05-14T23:53:07.870Z,55.70
2018-05-14T23:55:35.595Z,56.00
2018-05-14T23:58:04.080Z,56.60
